sensor_id;sensor_type;location;lat;lon;timestamp;temperature;humidity
67974;DHT22;54756;51.140;6.952;2023-04-03T00:01:21;0.00;91.70
67974;DHT22;54756;51.140;6.952;2023-04-03T00:03:22;0.00;91.80
67974;DHT22;54756;51.140;6.952;2023-04-03T00:05:23;-0.10;91.80
67974;DHT22;54756;51.140;6.952;2023-04-03T00:07:23;-0.10;91.90
67974;DHT22;54756;51.140;6.952;2023-04-03T00:09:24;-0.10;92.00
67974;DHT22;54756;51.140;6.952;2023-04-03T00:11:24;-0.20;92.00
67974;DHT22;54756;51.140;6.952;2023-04-03T00:13:25;-0.20;92.00
67974;DHT22;54756;51.140;6.952;2023-04-03T00:15:26;-0.30;92.00
67974;DHT22;54756;51.140;6.952;2023-04-03T00:17:26;-0.30;92.00
67974;DHT22;54756;51.140;6.952;2023-04-03T00:19:27;-0.30;92.10
67974;DHT22;54756;51.140;6.952;2023-04-03T00:21:27;-0.40;92.10
67974;DHT22;54756;51.140;6.952;2023-04-03T00:23:28;-0.40;92.30
67974;DHT22;54756;51.140;6.952;2023-04-03T00:25:28;-0.40;92.30
67974;DHT22;54756;51.140;6.952;2023-04-03T00:27:29;-0.40;92.30
67974;DHT22;54756;51.140;6.952;2023-04-03T00:29:30;-0.50;92.40
67974;DHT22;54756;51.140;6.952;2023-04-03T00:31:30;-0.50;92.50
67974;DHT22;54756;51.140;6.952;2023-04-03T00:33:31;-0.50;92.50
67974;DHT22;54756;51.140;6.952;2023-04-03T00:35:32;-0.50;92.50
67974;DHT22;54756;51.140;6.952;2023-04-03T00:37:34;-0.60;92.40
67974;DHT22;54756;51.140;6.952;2023-04-03T00:39:34;-0.60;92.40
67974;DHT22;54756;51.140;6.952;2023-04-03T00:41:35;-0.60;92.50
67974;DHT22;54756;51.140;6.952;2023-04-03T00:43:36;-0.60;92.70
67974;DHT22;54756;51.140;6.952;2023-04-03T00:45:39;-0.60;92.70
67974;DHT22;54756;51.140;6.952;2023-04-03T00:47:41;-0.60;92.70
67974;DHT22;54756;51.140;6.952;2023-04-03T00:49:42;-0.60;92.80
67974;DHT22;54756;51.140;6.952;2023-04-03T00:51:43;-0.70;92.80
67974;DHT22;54756;51.140;6.952;2023-04-03T00:53:56;-0.70;92.80
67974;DHT22;54756;51.140;6.952;2023-04-03T00:55:59;-0.70;92.80
67974;DHT22;54756;51.140;6.952;2023-04-03T00:58:01;-0.70;92.90
67974;DHT22;54756;51.140;6.952;2023-04-03T01:00:08;-0.70;92.90
67974;DHT22;54756;51.140;6.952;2023-04-03T01:02:09;-0.70;92.90
67974;DHT22;54756;51.140;6.952;2023-04-03T01:06:32;-0.80;93.00
67974;DHT22;54756;51.140;6.952;2023-04-03T01:08:33;-0.80;93.00
67974;DHT22;54756;51.140;6.952;2023-04-03T01:10:35;-0.80;93.10
67974;DHT22;54756;51.140;6.952;2023-04-03T01:12:38;-0.80;93.10
67974;DHT22;54756;51.140;6.952;2023-04-03T01:14:39;-0.90;93.10
67974;DHT22;54756;51.140;6.952;2023-04-03T01:16:39;-0.90;93.20
67974;DHT22;54756;51.140;6.952;2023-04-03T01:18:41;-0.90;93.20
67974;DHT22;54756;51.140;6.952;2023-04-03T01:23:13;-0.90;93.30
67974;DHT22;54756;51.140;6.952;2023-04-03T01:25:17;-1.00;93.30
67974;DHT22;54756;51.140;6.952;2023-04-03T01:27:18;-1.00;93.30
67974;DHT22;54756;51.140;6.952;2023-04-03T01:29:18;-1.00;93.30
67974;DHT22;54756;51.140;6.952;2023-04-03T01:31:26;-1.00;93.30
67974;DHT22;54756;51.140;6.952;2023-04-03T01:33:28;-1.00;93.40
67974;DHT22;54756;51.140;6.952;2023-04-03T01:35:28;-1.10;93.40
67974;DHT22;54756;51.140;6.952;2023-04-03T01:37:29;-1.10;93.40
67974;DHT22;54756;51.140;6.952;2023-04-03T01:39:30;-1.10;93.40
67974;DHT22;54756;51.140;6.952;2023-04-03T01:41:30;-1.10;93.50
67974;DHT22;54756;51.140;6.952;2023-04-03T01:43:31;-1.10;93.90
67974;DHT22;54756;51.140;6.952;2023-04-03T01:45:31;-1.10;93.60
67974;DHT22;54756;51.140;6.952;2023-04-03T01:47:32;-1.10;93.60
67974;DHT22;54756;51.140;6.952;2023-04-03T01:49:32;-1.10;93.70
67974;DHT22;54756;51.140;6.952;2023-04-03T01:51:33;-1.10;93.70
67974;DHT22;54756;51.140;6.952;2023-04-03T01:53:34;-1.10;93.70
67974;DHT22;54756;51.140;6.952;2023-04-03T01:55:34;-1.10;93.70
67974;DHT22;54756;51.140;6.952;2023-04-03T01:57:35;-1.20;93.80
67974;DHT22;54756;51.140;6.952;2023-04-03T01:59:35;-1.20;93.80
67974;DHT22;54756;51.140;6.952;2023-04-03T02:01:36;-1.20;93.80
67974;DHT22;54756;51.140;6.952;2023-04-03T02:03:36;-1.20;93.80
67974;DHT22;54756;51.140;6.952;2023-04-03T02:05:38;-1.20;93.90
67974;DHT22;54756;51.140;6.952;2023-04-03T02:07:38;-1.20;94.00
67974;DHT22;54756;51.140;6.952;2023-04-03T02:09:39;-1.20;94.00
67974;DHT22;54756;51.140;6.952;2023-04-03T02:11:40;-1.20;94.00
67974;DHT22;54756;51.140;6.952;2023-04-03T02:13:40;-1.20;94.00
67974;DHT22;54756;51.140;6.952;2023-04-03T02:15:41;-1.20;94.10
67974;DHT22;54756;51.140;6.952;2023-04-03T02:17:41;-1.20;94.20
67974;DHT22;54756;51.140;6.952;2023-04-03T02:19:42;-1.20;94.10
67974;DHT22;54756;51.140;6.952;2023-04-03T02:21:42;-1.30;94.10
67974;DHT22;54756;51.140;6.952;2023-04-03T02:23:43;-1.30;94.10
67974;DHT22;54756;51.140;6.952;2023-04-03T02:25:43;-1.30;94.10
67974;DHT22;54756;51.140;6.952;2023-04-03T02:27:44;-1.30;94.20
67974;DHT22;54756;51.140;6.952;2023-04-03T02:29:44;-1.30;94.20
67974;DHT22;54756;51.140;6.952;2023-04-03T02:31:45;-1.30;94.20
67974;DHT22;54756;51.140;6.952;2023-04-03T02:33:46;-1.30;94.30
67974;DHT22;54756;51.140;6.952;2023-04-03T02:35:46;-1.30;94.30
67974;DHT22;54756;51.140;6.952;2023-04-03T02:37:53;-1.30;94.40
67974;DHT22;54756;51.140;6.952;2023-04-03T02:39:53;-1.30;94.40
67974;DHT22;54756;51.140;6.952;2023-04-03T02:41:54;-1.30;94.40
67974;DHT22;54756;51.140;6.952;2023-04-03T02:43:54;-1.30;94.50
67974;DHT22;54756;51.140;6.952;2023-04-03T02:45:55;-1.30;94.50
67974;DHT22;54756;51.140;6.952;2023-04-03T02:47:56;-1.30;94.50
67974;DHT22;54756;51.140;6.952;2023-04-03T02:49:56;-1.30;94.50
67974;DHT22;54756;51.140;6.952;2023-04-03T02:51:57;-1.30;94.50
67974;DHT22;54756;51.140;6.952;2023-04-03T02:53:58;-1.40;94.50
67974;DHT22;54756;51.140;6.952;2023-04-03T02:55:58;-1.40;94.50
67974;DHT22;54756;51.140;6.952;2023-04-03T02:57:59;-1.40;94.60
67974;DHT22;54756;51.140;6.952;2023-04-03T02:59:59;-1.40;94.60
67974;DHT22;54756;51.140;6.952;2023-04-03T03:02:00;-1.40;94.60
67974;DHT22;54756;51.140;6.952;2023-04-03T03:04:00;-1.40;94.70
67974;DHT22;54756;51.140;6.952;2023-04-03T03:06:06;-1.40;94.70
67974;DHT22;54756;51.140;6.952;2023-04-03T03:08:07;-1.40;94.70
67974;DHT22;54756;51.140;6.952;2023-04-03T03:10:07;-1.40;94.70
67974;DHT22;54756;51.140;6.952;2023-04-03T03:12:08;-1.50;94.70
67974;DHT22;54756;51.140;6.952;2023-04-03T03:14:09;-1.50;94.70
67974;DHT22;54756;51.140;6.952;2023-04-03T03:16:09;-1.50;94.70
67974;DHT22;54756;51.140;6.952;2023-04-03T03:18:10;-1.50;94.70
67974;DHT22;54756;51.140;6.952;2023-04-03T03:20:11;-1.50;94.70
67974;DHT22;54756;51.140;6.952;2023-04-03T03:22:12;-1.60;94.60
67974;DHT22;54756;51.140;6.952;2023-04-03T03:24:13;-1.50;94.80
67974;DHT22;54756;51.140;6.952;2023-04-03T03:26:13;-1.60;94.80
67974;DHT22;54756;51.140;6.952;2023-04-03T03:28:14;-1.60;94.80
67974;DHT22;54756;51.140;6.952;2023-04-03T03:30:15;-1.60;94.80
67974;DHT22;54756;51.140;6.952;2023-04-03T03:32:15;-1.60;94.80
67974;DHT22;54756;51.140;6.952;2023-04-03T03:34:16;-1.60;94.90
67974;DHT22;54756;51.140;6.952;2023-04-03T03:36:16;-1.60;94.90
67974;DHT22;54756;51.140;6.952;2023-04-03T03:38:17;-1.60;94.90
67974;DHT22;54756;51.140;6.952;2023-04-03T03:40:18;-1.60;95.00
67974;DHT22;54756;51.140;6.952;2023-04-03T03:42:18;-1.60;95.00
67974;DHT22;54756;51.140;6.952;2023-04-03T03:44:19;-1.60;95.00
67974;DHT22;54756;51.140;6.952;2023-04-03T03:46:20;-1.60;95.00
67974;DHT22;54756;51.140;6.952;2023-04-03T03:48:21;-1.60;95.10
67974;DHT22;54756;51.140;6.952;2023-04-03T03:50:22;-1.60;95.20
67974;DHT22;54756;51.140;6.952;2023-04-03T03:52:22;-1.60;95.20
67974;DHT22;54756;51.140;6.952;2023-04-03T03:54:23;-1.60;95.20
67974;DHT22;54756;51.140;6.952;2023-04-03T03:56:23;-1.50;95.30
67974;DHT22;54756;51.140;6.952;2023-04-03T03:58:24;-1.50;95.40
67974;DHT22;54756;51.140;6.952;2023-04-03T04:00:25;-1.50;95.50
67974;DHT22;54756;51.140;6.952;2023-04-03T04:02:25;-1.50;95.60
67974;DHT22;54756;51.140;6.952;2023-04-03T04:04:26;-1.40;95.70
67974;DHT22;54756;51.140;6.952;2023-04-03T04:06:27;-1.40;96.00
67974;DHT22;54756;51.140;6.952;2023-04-03T04:08:27;-1.40;95.80
67974;DHT22;54756;51.140;6.952;2023-04-03T04:10:28;-1.30;95.80
67974;DHT22;54756;51.140;6.952;2023-04-03T04:12:28;-1.30;95.90
67974;DHT22;54756;51.140;6.952;2023-04-03T04:14:29;-1.30;96.00
67974;DHT22;54756;51.140;6.952;2023-04-03T04:16:29;-1.20;96.10
67974;DHT22;54756;51.140;6.952;2023-04-03T04:18:30;-1.20;96.20
67974;DHT22;54756;51.140;6.952;2023-04-03T04:20:30;-1.10;96.20
67974;DHT22;54756;51.140;6.952;2023-04-03T04:22:31;-1.00;96.30
67974;DHT22;54756;51.140;6.952;2023-04-03T04:24:31;-1.00;96.50
67974;DHT22;54756;51.140;6.952;2023-04-03T04:26:32;-1.00;96.50
67974;DHT22;54756;51.140;6.952;2023-04-03T04:28:33;-0.90;96.70
67974;DHT22;54756;51.140;6.952;2023-04-03T04:30:33;-0.80;96.90
67974;DHT22;54756;51.140;6.952;2023-04-03T04:32:34;-0.70;96.90
67974;DHT22;54756;51.140;6.952;2023-04-03T04:34:34;-0.70;96.90
67974;DHT22;54756;51.140;6.952;2023-04-03T04:36:35;-0.70;96.90
67974;DHT22;54756;51.140;6.952;2023-04-03T04:38:36;-0.70;96.80
67974;DHT22;54756;51.140;6.952;2023-04-03T04:40:36;-0.70;96.70
67974;DHT22;54756;51.140;6.952;2023-04-03T04:42:38;-0.70;96.60
67974;DHT22;54756;51.140;6.952;2023-04-03T04:44:39;-0.70;96.50
67974;DHT22;54756;51.140;6.952;2023-04-03T04:46:39;-0.70;96.50
67974;DHT22;54756;51.140;6.952;2023-04-03T04:48:40;-0.60;96.70
67974;DHT22;54756;51.140;6.952;2023-04-03T04:50:41;-0.60;96.70
67974;DHT22;54756;51.140;6.952;2023-04-03T04:52:41;-0.50;96.80
67974;DHT22;54756;51.140;6.952;2023-04-03T04:54:42;-0.50;96.70
67974;DHT22;54756;51.140;6.952;2023-04-03T04:56:42;-0.50;96.50
67974;DHT22;54756;51.140;6.952;2023-04-03T04:58:43;-0.50;96.40
67974;DHT22;54756;51.140;6.952;2023-04-03T05:00:43;-0.50;96.30
67974;DHT22;54756;51.140;6.952;2023-04-03T05:02:44;-0.50;96.30
67974;DHT22;54756;51.140;6.952;2023-04-03T05:04:45;-0.50;96.20
67974;DHT22;54756;51.140;6.952;2023-04-03T05:06:45;-0.50;96.20
67974;DHT22;54756;51.140;6.952;2023-04-03T05:08:46;-0.50;96.20
67974;DHT22;54756;51.140;6.952;2023-04-03T05:10:47;-0.40;96.20
67974;DHT22;54756;51.140;6.952;2023-04-03T05:12:48;-0.40;96.20
67974;DHT22;54756;51.140;6.952;2023-04-03T05:14:48;-0.40;96.20
67974;DHT22;54756;51.140;6.952;2023-04-03T05:16:49;-0.40;96.20
67974;DHT22;54756;51.140;6.952;2023-04-03T05:18:53;-0.40;96.00
67974;DHT22;54756;51.140;6.952;2023-04-03T05:20:53;-0.40;95.90
67974;DHT22;54756;51.140;6.952;2023-04-03T05:22:54;-0.40;95.80
67974;DHT22;54756;51.140;6.952;2023-04-03T05:24:54;-0.40;95.70
67974;DHT22;54756;51.140;6.952;2023-04-03T05:26:55;-0.40;95.60
67974;DHT22;54756;51.140;6.952;2023-04-03T05:28:55;-0.40;95.50
67974;DHT22;54756;51.140;6.952;2023-04-03T05:30:57;-0.40;95.50
67974;DHT22;54756;51.140;6.952;2023-04-03T05:32:59;-0.30;95.50
67974;DHT22;54756;51.140;6.952;2023-04-03T05:34:59;-0.40;95.40
67974;DHT22;54756;51.140;6.952;2023-04-03T05:37:00;-0.30;95.40
67974;DHT22;54756;51.140;6.952;2023-04-03T05:39:00;-0.30;95.40
67974;DHT22;54756;51.140;6.952;2023-04-03T05:41:01;-0.30;95.50
67974;DHT22;54756;51.140;6.952;2023-04-03T05:43:01;-0.30;95.50
67974;DHT22;54756;51.140;6.952;2023-04-03T05:45:02;-0.20;95.60
67974;DHT22;54756;51.140;6.952;2023-04-03T05:47:03;-0.20;95.60
67974;DHT22;54756;51.140;6.952;2023-04-03T05:49:04;-0.10;95.70
67974;DHT22;54756;51.140;6.952;2023-04-03T05:51:05;-0.10;96.00
67974;DHT22;54756;51.140;6.952;2023-04-03T05:53:07;0.00;95.70
67974;DHT22;54756;51.140;6.952;2023-04-03T05:55:12;0.10;96.00
67974;DHT22;54756;51.140;6.952;2023-04-03T05:57:13;0.10;95.70
67974;DHT22;54756;51.140;6.952;2023-04-03T05:59:14;0.20;95.80
67974;DHT22;54756;51.140;6.952;2023-04-03T06:01:15;0.30;95.70
67974;DHT22;54756;51.140;6.952;2023-04-03T06:03:16;0.30;95.60
67974;DHT22;54756;51.140;6.952;2023-04-03T06:05:17;0.40;95.50
67974;DHT22;54756;51.140;6.952;2023-04-03T06:07:22;0.50;95.90
67974;DHT22;54756;51.140;6.952;2023-04-03T06:09:25;0.50;95.40
67974;DHT22;54756;51.140;6.952;2023-04-03T06:11:26;0.60;95.10
67974;DHT22;54756;51.140;6.952;2023-04-03T06:13:27;0.70;95.00
67974;DHT22;54756;51.140;6.952;2023-04-03T06:15:27;0.80;94.90
67974;DHT22;54756;51.140;6.952;2023-04-03T06:17:28;0.80;94.80
67974;DHT22;54756;51.140;6.952;2023-04-03T06:19:30;0.90;94.50
67974;DHT22;54756;51.140;6.952;2023-04-03T06:21:30;1.00;94.30
67974;DHT22;54756;51.140;6.952;2023-04-03T06:23:31;1.00;94.30
67974;DHT22;54756;51.140;6.952;2023-04-03T06:25:33;1.10;93.90
67974;DHT22;54756;51.140;6.952;2023-04-03T06:27:33;1.20;93.80
67974;DHT22;54756;51.140;6.952;2023-04-03T06:29:34;1.20;93.40
67974;DHT22;54756;51.140;6.952;2023-04-03T06:31:35;1.30;93.10
67974;DHT22;54756;51.140;6.952;2023-04-03T06:33:36;1.30;92.90
67974;DHT22;54756;51.140;6.952;2023-04-03T06:35:37;1.40;92.40
67974;DHT22;54756;51.140;6.952;2023-04-03T06:37:38;1.50;92.00
67974;DHT22;54756;51.140;6.952;2023-04-03T06:39:39;1.60;91.20
67974;DHT22;54756;51.140;6.952;2023-04-03T06:41:40;1.70;90.40
67974;DHT22;54756;51.140;6.952;2023-04-03T06:43:40;1.80;90.50
67974;DHT22;54756;51.140;6.952;2023-04-03T06:45:41;2.00;89.10
67974;DHT22;54756;51.140;6.952;2023-04-03T06:47:41;2.10;88.70
67974;DHT22;54756;51.140;6.952;2023-04-03T06:49:43;2.10;88.80
67974;DHT22;54756;51.140;6.952;2023-04-03T06:51:43;2.20;89.00
67974;DHT22;54756;51.140;6.952;2023-04-03T06:53:44;2.20;88.00
67974;DHT22;54756;51.140;6.952;2023-04-03T06:55:46;2.30;86.70
67974;DHT22;54756;51.140;6.952;2023-04-03T06:57:47;2.40;86.30
67974;DHT22;54756;51.140;6.952;2023-04-03T06:59:48;2.50;85.60
67974;DHT22;54756;51.140;6.952;2023-04-03T07:01:48;2.60;85.00
67974;DHT22;54756;51.140;6.952;2023-04-03T07:03:49;2.60;85.70
67974;DHT22;54756;51.140;6.952;2023-04-03T07:05:49;2.70;85.00
67974;DHT22;54756;51.140;6.952;2023-04-03T07:07:50;2.80;85.40
67974;DHT22;54756;51.140;6.952;2023-04-03T07:09:51;2.80;83.80
67974;DHT22;54756;51.140;6.952;2023-04-03T07:11:52;2.90;84.60
67974;DHT22;54756;51.140;6.952;2023-04-03T07:13:53;3.00;76.90
67974;DHT22;54756;51.140;6.952;2023-04-03T07:15:54;3.20;72.90
67974;DHT22;54756;51.140;6.952;2023-04-03T07:17:55;3.30;69.80
67974;DHT22;54756;51.140;6.952;2023-04-03T07:19:56;3.40;67.50
67974;DHT22;54756;51.140;6.952;2023-04-03T07:21:56;3.50;65.50
67974;DHT22;54756;51.140;6.952;2023-04-03T07:23:57;3.60;63.30
67974;DHT22;54756;51.140;6.952;2023-04-03T07:25:58;3.60;62.70
67974;DHT22;54756;51.140;6.952;2023-04-03T07:27:58;3.70;62.00
67974;DHT22;54756;51.140;6.952;2023-04-03T07:29:59;3.70;59.50
67974;DHT22;54756;51.140;6.952;2023-04-03T07:31:59;3.80;61.00
67974;DHT22;54756;51.140;6.952;2023-04-03T07:34:00;3.80;59.80
67974;DHT22;54756;51.140;6.952;2023-04-03T07:36:01;3.90;60.30
67974;DHT22;54756;51.140;6.952;2023-04-03T07:38:02;3.80;63.50
67974;DHT22;54756;51.140;6.952;2023-04-03T07:40:03;3.90;63.80
67974;DHT22;54756;51.140;6.952;2023-04-03T07:42:04;3.90;61.90
67974;DHT22;54756;51.140;6.952;2023-04-03T07:44:04;4.00;61.10
67974;DHT22;54756;51.140;6.952;2023-04-03T07:46:05;4.10;57.80
67974;DHT22;54756;51.140;6.952;2023-04-03T07:48:06;4.20;57.60
67974;DHT22;54756;51.140;6.952;2023-04-03T07:50:07;4.20;54.00
67974;DHT22;54756;51.140;6.952;2023-04-03T07:52:08;4.30;58.00
67974;DHT22;54756;51.140;6.952;2023-04-03T07:54:09;4.30;54.90
67974;DHT22;54756;51.140;6.952;2023-04-03T07:56:10;4.40;52.10
67974;DHT22;54756;51.140;6.952;2023-04-03T07:58:12;4.50;51.70
67974;DHT22;54756;51.140;6.952;2023-04-03T08:00:13;4.60;50.00
67974;DHT22;54756;51.140;6.952;2023-04-03T08:02:14;4.70;49.70
67974;DHT22;54756;51.140;6.952;2023-04-03T08:04:15;4.70;50.30
67974;DHT22;54756;51.140;6.952;2023-04-03T08:06:16;4.90;45.70
67974;DHT22;54756;51.140;6.952;2023-04-03T08:08:22;4.90;39.80
67974;DHT22;54756;51.140;6.952;2023-04-03T08:10:23;5.10;39.00
67974;DHT22;54756;51.140;6.952;2023-04-03T08:12:24;5.10;36.30
67974;DHT22;54756;51.140;6.952;2023-04-03T08:14:24;5.20;32.70
67974;DHT22;54756;51.140;6.952;2023-04-03T08:16:25;5.30;33.30
67974;DHT22;54756;51.140;6.952;2023-04-03T08:18:27;5.40;32.90
67974;DHT22;54756;51.140;6.952;2023-04-03T08:20:28;5.60;21.20
67974;DHT22;54756;51.140;6.952;2023-04-03T08:22:29;5.60;23.10
67974;DHT22;54756;51.140;6.952;2023-04-03T08:24:30;5.70;16.60
67974;DHT22;54756;51.140;6.952;2023-04-03T08:26:31;5.80;17.10
67974;DHT22;54756;51.140;6.952;2023-04-03T08:28:31;5.90;13.30
67974;DHT22;54756;51.140;6.952;2023-04-03T08:30:32;5.90;16.70
67974;DHT22;54756;51.140;6.952;2023-04-03T08:32:33;6.00;14.80
67974;DHT22;54756;51.140;6.952;2023-04-03T08:34:35;6.10;10.70
67974;DHT22;54756;51.140;6.952;2023-04-03T08:36:37;6.20;1.00
67974;DHT22;54756;51.140;6.952;2023-04-03T08:38:37;6.30;1.00
67974;DHT22;54756;51.140;6.952;2023-04-03T08:40:39;6.40;1.00
67974;DHT22;54756;51.140;6.952;2023-04-03T08:45:44;6.50;1.00
67974;DHT22;54756;51.140;6.952;2023-04-03T08:47:52;6.60;1.00
67974;DHT22;54756;51.140;6.952;2023-04-03T08:49:56;6.60;1.00
67974;DHT22;54756;51.140;6.952;2023-04-03T08:51:59;6.70;1.00
67974;DHT22;54756;51.140;6.952;2023-04-03T08:54:05;6.80;1.00
67974;DHT22;54756;51.140;6.952;2023-04-03T08:56:09;6.90;1.00
67974;DHT22;54756;51.140;6.952;2023-04-03T08:58:21;7.10;1.00
67974;DHT22;54756;51.140;6.952;2023-04-03T09:00:24;7.30;1.00
67974;DHT22;54756;51.140;6.952;2023-04-03T09:02:34;7.40;1.00
67974;DHT22;54756;51.140;6.952;2023-04-03T09:04:36;7.50;1.00
67974;DHT22;54756;51.140;6.952;2023-04-03T09:06:38;7.60;1.00
67974;DHT22;54756;51.140;6.952;2023-04-03T09:10:43;7.60;1.00
67974;DHT22;54756;51.140;6.952;2023-04-03T09:12:49;7.60;1.00
67974;DHT22;54756;51.140;6.952;2023-04-03T09:19:56;7.80;1.00
67974;DHT22;54756;51.140;6.952;2023-04-03T09:22:03;7.90;1.00
67974;DHT22;54756;51.140;6.952;2023-04-03T09:24:12;8.10;1.00
67974;DHT22;54756;51.140;6.952;2023-04-03T09:26:19;8.20;1.00
67974;DHT22;54756;51.140;6.952;2023-04-03T09:28:21;8.20;1.00
67974;DHT22;54756;51.140;6.952;2023-04-03T09:30:24;8.20;1.00
67974;DHT22;54756;51.140;6.952;2023-04-03T09:32:30;8.30;1.00
67974;DHT22;54756;51.140;6.952;2023-04-03T09:34:34;8.40;1.00
67974;DHT22;54756;51.140;6.952;2023-04-03T09:36:47;8.60;1.00
67974;DHT22;54756;51.140;6.952;2023-04-03T09:39:03;8.70;1.00
67974;DHT22;54756;51.140;6.952;2023-04-03T09:41:14;8.90;1.00
67974;DHT22;54756;51.140;6.952;2023-04-03T09:43:32;9.00;1.00
67974;DHT22;54756;51.140;6.952;2023-04-03T09:45:34;9.10;1.00
67974;DHT22;54756;51.140;6.952;2023-04-03T09:47:36;9.30;1.00
67974;DHT22;54756;51.140;6.952;2023-04-03T09:49:38;9.40;1.00
67974;DHT22;54756;51.140;6.952;2023-04-03T09:51:38;9.50;1.00
67974;DHT22;54756;51.140;6.952;2023-04-03T09:53:43;9.60;1.00
67974;DHT22;54756;51.140;6.952;2023-04-03T09:55:44;9.70;1.00
67974;DHT22;54756;51.140;6.952;2023-04-03T09:57:46;9.90;1.00
67974;DHT22;54756;51.140;6.952;2023-04-03T09:59:59;9.90;1.00
67974;DHT22;54756;51.140;6.952;2023-04-03T10:04:23;10.10;1.00
67974;DHT22;54756;51.140;6.952;2023-04-03T10:06:24;10.10;1.00
67974;DHT22;54756;51.140;6.952;2023-04-03T10:08:32;10.30;1.00
67974;DHT22;54756;51.140;6.952;2023-04-03T10:10:33;10.70;1.00
67974;DHT22;54756;51.140;6.952;2023-04-03T10:12:33;11.20;1.00
67974;DHT22;54756;51.140;6.952;2023-04-03T10:15:00;11.60;1.00
67974;DHT22;54756;51.140;6.952;2023-04-03T10:17:05;12.00;1.00
67974;DHT22;54756;51.140;6.952;2023-04-03T10:21:48;11.90;1.00
67974;DHT22;54756;51.140;6.952;2023-04-03T10:24:03;11.70;1.00
67974;DHT22;54756;51.140;6.952;2023-04-03T10:26:24;11.60;1.00
67974;DHT22;54756;51.140;6.952;2023-04-03T10:31:11;11.60;1.00
67974;DHT22;54756;51.140;6.952;2023-04-03T10:36:07;11.60;1.00
67974;DHT22;54756;51.140;6.952;2023-04-03T10:43:42;11.90;1.00
67974;DHT22;54756;51.140;6.952;2023-04-03T10:46:13;12.10;1.00
67974;DHT22;54756;51.140;6.952;2023-04-03T10:51:04;12.20;1.00
67974;DHT22;54756;51.140;6.952;2023-04-03T10:53:39;12.30;1.00
67974;DHT22;54756;51.140;6.952;2023-04-03T10:56:15;12.40;1.00
67974;DHT22;54756;51.140;6.952;2023-04-03T10:58:35;12.60;1.00
67974;DHT22;54756;51.140;6.952;2023-04-03T11:00:42;13.20;1.00
67974;DHT22;54756;51.140;6.952;2023-04-03T11:02:51;13.80;99.90
67974;DHT22;54756;51.140;6.952;2023-04-03T11:04:57;14.20;99.90
67974;DHT22;54756;51.140;6.952;2023-04-03T11:07:01;14.80;64.20
67974;DHT22;54756;51.140;6.952;2023-04-03T11:09:05;15.30;1.00
67974;DHT22;54756;51.140;6.952;2023-04-03T11:11:13;15.70;1.00
67974;DHT22;54756;51.140;6.952;2023-04-03T11:13:15;16.30;99.90
67974;DHT22;54756;51.140;6.952;2023-04-03T11:15:19;16.70;99.90
67974;DHT22;54756;51.140;6.952;2023-04-03T11:17:35;17.10;1.00
67974;DHT22;54756;51.140;6.952;2023-04-03T11:22:03;18.20;1.00
67974;DHT22;54756;51.140;6.952;2023-04-03T11:24:16;18.20;99.90
67974;DHT22;54756;51.140;6.952;2023-04-03T11:26:19;18.10;1.00
67974;DHT22;54756;51.140;6.952;2023-04-03T11:28:22;18.10;1.00
67974;DHT22;54756;51.140;6.952;2023-04-03T11:30:32;18.20;1.00
67974;DHT22;54756;51.140;6.952;2023-04-03T11:35:02;18.90;1.00
67974;DHT22;54756;51.140;6.952;2023-04-03T11:37:17;19.20;99.90
67974;DHT22;54756;51.140;6.952;2023-04-03T11:39:29;19.60;99.90
67974;DHT22;54756;51.140;6.952;2023-04-03T11:41:32;20.10;99.90
67974;DHT22;54756;51.140;6.952;2023-04-03T11:43:33;20.50;99.90
67974;DHT22;54756;51.140;6.952;2023-04-03T11:45:59;21.20;99.90
67974;DHT22;54756;51.140;6.952;2023-04-03T11:48:42;21.50;99.90
67974;DHT22;54756;51.140;6.952;2023-04-03T11:56:40;21.60;1.00
67974;DHT22;54756;51.140;6.952;2023-04-03T12:01:11;21.90;1.00
67974;DHT22;54756;51.140;6.952;2023-04-03T12:05:40;21.20;1.00
67974;DHT22;54756;51.140;6.952;2023-04-03T12:07:41;21.80;1.00
67974;DHT22;54756;51.140;6.952;2023-04-03T12:11:43;22.40;1.00
67974;DHT22;54756;51.140;6.952;2023-04-03T12:15:57;22.80;1.00
67974;DHT22;54756;51.140;6.952;2023-04-03T12:25:47;23.60;1.00
67974;DHT22;54756;51.140;6.952;2023-04-03T12:27:51;24.10;1.00
67974;DHT22;54756;51.140;6.952;2023-04-03T12:30:01;24.40;1.00
67974;DHT22;54756;51.140;6.952;2023-04-03T12:36:40;24.80;1.00
67974;DHT22;54756;51.140;6.952;2023-04-03T12:39:00;25.10;1.00
67974;DHT22;54756;51.140;6.952;2023-04-03T12:45:51;25.70;1.00
67974;DHT22;54756;51.140;6.952;2023-04-03T12:47:54;26.80;1.00
67974;DHT22;54756;51.140;6.952;2023-04-03T12:49:57;27.60;1.00
67974;DHT22;54756;51.140;6.952;2023-04-03T12:51:59;28.00;1.00
67974;DHT22;54756;51.140;6.952;2023-04-03T12:54:31;28.00;1.00
67974;DHT22;54756;51.140;6.952;2023-04-03T12:56:33;27.80;1.00
67974;DHT22;54756;51.140;6.952;2023-04-03T12:58:34;27.80;1.00
67974;DHT22;54756;51.140;6.952;2023-04-03T13:00:35;28.00;1.00
67974;DHT22;54756;51.140;6.952;2023-04-03T13:02:44;27.70;1.00
67974;DHT22;54756;51.140;6.952;2023-04-03T13:04:45;27.90;1.00
67974;DHT22;54756;51.140;6.952;2023-04-03T13:06:46;28.30;1.00
67974;DHT22;54756;51.140;6.952;2023-04-03T13:08:56;28.30;1.00
67974;DHT22;54756;51.140;6.952;2023-04-03T13:11:05;27.50;99.90
67974;DHT22;54756;51.140;6.952;2023-04-03T13:13:08;27.90;99.90
67974;DHT22;54756;51.140;6.952;2023-04-03T13:15:17;28.30;99.90
67974;DHT22;54756;51.140;6.952;2023-04-03T13:17:18;29.30;99.90
67974;DHT22;54756;51.140;6.952;2023-04-03T13:19:18;29.80;1.00
67974;DHT22;54756;51.140;6.952;2023-04-03T13:21:28;29.50;99.90
67974;DHT22;54756;51.140;6.952;2023-04-03T13:23:29;29.70;99.90
67974;DHT22;54756;51.140;6.952;2023-04-03T13:25:34;29.80;99.90
67974;DHT22;54756;51.140;6.952;2023-04-03T13:27:35;29.50;99.90
67974;DHT22;54756;51.140;6.952;2023-04-03T13:29:37;28.40;99.90
67974;DHT22;54756;51.140;6.952;2023-04-03T13:31:39;28.40;99.90
67974;DHT22;54756;51.140;6.952;2023-04-03T13:36:08;29.20;99.90
67974;DHT22;54756;51.140;6.952;2023-04-03T13:40:20;30.30;99.90
67974;DHT22;54756;51.140;6.952;2023-04-03T13:42:30;30.60;99.90
67974;DHT22;54756;51.140;6.952;2023-04-03T13:44:35;29.90;99.90
67974;DHT22;54756;51.140;6.952;2023-04-03T13:46:36;29.80;99.90
67974;DHT22;54756;51.140;6.952;2023-04-03T13:48:46;30.10;99.90
67974;DHT22;54756;51.140;6.952;2023-04-03T13:50:57;30.80;99.90
67974;DHT22;54756;51.140;6.952;2023-04-03T13:53:09;30.90;99.90
67974;DHT22;54756;51.140;6.952;2023-04-03T13:55:32;30.60;99.90
67974;DHT22;54756;51.140;6.952;2023-04-03T13:57:33;31.80;99.90
67974;DHT22;54756;51.140;6.952;2023-04-03T13:59:35;31.40;99.90
67974;DHT22;54756;51.140;6.952;2023-04-03T14:03:56;31.30;99.90
67974;DHT22;54756;51.140;6.952;2023-04-03T14:05:57;31.00;99.90
67974;DHT22;54756;51.140;6.952;2023-04-03T14:07:58;30.50;99.90
67974;DHT22;54756;51.140;6.952;2023-04-03T14:09:59;30.40;99.90
67974;DHT22;54756;51.140;6.952;2023-04-03T14:12:04;30.20;99.90
67974;DHT22;54756;51.140;6.952;2023-04-03T14:14:16;30.00;99.90
67974;DHT22;54756;51.140;6.952;2023-04-03T14:16:23;29.80;99.90
67974;DHT22;54756;51.140;6.952;2023-04-03T14:18:24;29.60;99.90
67974;DHT22;54756;51.140;6.952;2023-04-03T14:20:26;30.10;99.90
67974;DHT22;54756;51.140;6.952;2023-04-03T14:22:30;30.30;99.90